Blair, Nebraska
Current Conditions -  °F | °C
As of 12:35 PM on Wednesday 26 Nov 2014 (Local Time) from KBTA Reporting Station
Overcast Overcast  
Wind Chill: 16°   Ceiling: 1600
Heat Index: 31°   Visibility: 10mi
Dew Point: 23°   Wind: 31mph
Humidity: 72%   Direction: 340°NNW
Pressure: 30.09"   Gusts: 39mph
Location:  41.54°N, 96.13°W
Report Text: KBTA 261835Z AUTO 34027G34KT 10SM OVC016 M01/M05 A3009 RMK AO2 T10071051
Loading
Personal Weather Stations






























Interactive Weather Map New forecast layout! Learn more

10-Day Weather Forecast

Advertisements
Track Severe Weather on mobile